Data for 10/25/2017

Time Sea-Level Adjusted Pressure Absolute Pressure Temperature Relative Humidity Dew Point   
(mb) (inHg) (mb) (inHg) (C) (F) (%) (C) (F)
00:05 1028 30.36 857 25.31 6.6 43.8 36 -7.4 18.7
00:10 1028 30.36 857 25.31 6 42.7 38 -7.1 19.1
00:15 1028 30.36 857 25.31 5.4 41.6 41 -7 19.5
00:20 1028 30.36 857 25.31 4.9 40.9 41 -7.2 19
00:25 1028 30.36 857 25.31 4.7 40.5 42 -7.3 18.9
00:30 1028 30.36 857 25.31 4.9 40.9 40 -7.6 18.3
00:35 1028 30.36 857 25.31 5.5 41.9 36 -8.4 16.9
00:40 1028 30.36 857 25.31 6 42.8 35 -8.3 17.1
00:45 1028 30.36 857 25.31 5.9 42.7 37 -7.7 18.1
00:50 1027 30.33 857 25.31 5.5 42 37 -8 17.7
00:55 1027 30.33 857 25.31 5.5 41.8 38 -7.8 17.9
01:00 1027 30.33 857 25.31 5.5 41.8 34 -9.2 15.5
01:05 1027 30.33 857 25.31 6.3 43.3 33 -8.7 16.4
01:10 1027 30.33 856 25.28 6.3 43.3 33 -8.7 16.4
01:15 1027 30.33 856 25.28 6.1 43.1 34 -8.7 16.3
01:20 1027 30.33 856 25.28 6.1 43 33 -9 15.7
01:25 1027 30.33 856 25.28 6.1 43 35 -8.2 17.2
01:30 1027 30.33 856 25.28 5.5 41.8 38 -7.9 17.8
01:35 1027 30.33 856 25.28 5.2 41.3 37 -8.5 16.7
01:40 1027 30.33 856 25.28 5.5 41.8 36 -8.6 16.6
01:45 1027 30.33 856 25.28 5.6 42 35 -8.6 16.5
01:50 1027 30.33 856 25.28 5.5 41.9 36 -8.3 17.1
01:55 1027 30.33 856 25.28 5.2 41.3 37 -8.3 17.1
02:00 1027 30.33 856 25.28 5 40.9 38 -8 17.5
02:05 1027 30.33 856 25.28 4.8 40.7 39 -8.1 17.4
02:10 1026 30.3 856 25.28 4.8 40.6 39 -7.9 17.8
02:15 1026 30.3 856 25.28 4.4 40 41 -7.8 18
02:20 1026 30.3 855 25.25 4.2 39.6 41 -7.9 17.8
02:25 1026 30.3 855 25.25 3.9 39.1 43 -7.6 18.3
02:30 1026 30.3 855 25.25 4 39.1 40 -8.4 16.9
02:35 1026 30.3 855 25.25 4.1 39.4 42 -7.7 18.1
02:40 1026 30.3 855 25.25 3.7 38.7 44 -7.5 18.5
02:45 1026 30.3 855 25.25 3.7 38.6 41 -8.3 17
02:50 1026 30.3 855 25.25 4.4 39.8 40 -8.2 17.2
02:55 1026 30.3 855 25.25 4.6 40.2 39 -8.1 17.4
03:00 1026 30.3 855 25.25 4.5 40 40 -8 17.6
03:05 1026 30.3 855 25.25 4.5 40 40 -8 17.6
03:10 1026 30.3 855 25.25 4.4 40 40 -8.2 17.3
03:15 1026 30.3 855 25.25 4.4 40 41 -7.8 18
03:20 1026 30.3 855 25.25 3.9 39 42 -7.9 17.7
03:25 1026 30.3 855 25.25 4.1 39.4 40 -8.3 17
03:30 1026 30.3 855 25.25 4.6 40.3 39 -8.3 17.1
03:35 1025 30.27 855 25.25 4.7 40.5 39 -8.3 17.1
03:40 1025 30.27 855 25.25 4.9 40.8 38 -8.3 17
03:45 1025 30.27 855 25.25 4.5 40.2 41 -7.7 18.1
03:50 1025 30.27 854 25.22 3.8 38.9 42 -8.1 17.5
03:55 1025 30.27 854 25.22 4.7 40.5 37 -8.9 16.1
04:00 1025 30.27 854 25.22 5 41 38 -8.3 17
04:05 1025 30.27 854 25.22 4.5 40.1 40 -8 17.6
04:10 1025 30.27 854 25.22 4 39.3 41 -8.2 17.3
04:15 1025 30.27 854 25.22 4.7 40.5 37 -8.8 16.1
04:20 1025 30.27 854 25.22 4.8 40.7 40 -7.8 18
04:25 1024 30.24 854 25.22 4.6 40.4 39 -8.3 17.1
04:30 1024 30.24 854 25.22 4.6 40.2 39 -8.1 17.3
04:35 1024 30.24 854 25.22 4.7 40.5 38 -8.3 17.1
04:40 1024 30.24 853 25.19 4.8 40.6 40 -7.7 18.1
04:45 1024 30.24 853 25.19 4.4 39.9 41 -7.7 18.2
04:50 1024 30.24 853 25.19 4.3 39.7 42 -7.7 18.2
04:55 1024 30.24 853 25.19 3.9 39 43 -7.6 18.3
05:00 1024 30.24 853 25.19 4 39.1 40 -8.6 16.5
05:05 1024 30.24 853 25.19 4.9 40.8 39 -8 17.6
05:10 1024 30.24 853 25.19 4.9 40.9 36 -8.9 16
05:15 1024 30.24 853 25.19 5.6 42.1 35 -8.8 16.1
05:20 1024 30.24 853 25.19 5.8 42.5 33 -9.1 15.6
05:25 1023 30.21 853 25.19 5.7 42.2 32 -9.7 14.5
05:30 1023 30.21 853 25.19 6.3 43.3 33 -8.9 16.1
05:35 1023 30.21 852 25.16 6 42.8 34 -8.6 16.5
05:40 1023 30.21 852 25.16 5.7 42.2 34 -8.9 15.9
05:45 1023 30.21 852 25.16 5.9 42.6 33 -9.3 15.2
05:50 1023 30.21 852 25.16 5.5 41.8 35 -8.7 16.3
05:55 1023 30.21 852 25.16 4.9 40.8 37 -8.4 16.8
06:00 1023 30.21 852 25.16 4.1 39.4 42 -7.7 18.2
06:05 1023 30.21 852 25.16 3.9 39 41 -8 17.5
06:10 1022 30.18 852 25.16 4.1 39.4 40 -8.3 17.1
06:15 1022 30.18 852 25.16 4.3 39.7 39 -8.4 16.9
06:20 1022 30.18 851 25.13 4.3 39.7 39 -8.6 16.5
06:25 1022 30.18 851 25.13 4.7 40.5 35 -9.3 15.2
06:30 1022 30.18 851 25.13 5.1 41.2 35 -9 15.9
06:35 1022 30.18 851 25.13 4.4 39.9 39 -8.5 16.7
06:40 1022 30.18 851 25.13 3.8 38.9 40 -8.7 16.4
06:45 1022 30.18 851 25.13 3.4 38.1 42 -8.2 17.2
06:50 1022 30.18 851 25.13 3.5 38.3 41 -8.5 16.7
06:55 1022 30.18 851 25.13 3.2 37.7 44 -7.9 17.7
07:00 1022 30.18 851 25.13 3.4 38.2 42 -8.5 16.8
07:05 1021 30.15 851 25.13 3.8 38.8 43 -7.7 18.1
07:10 1021 30.15 851 25.13 3.8 38.8 43 -7.8 18
07:15 1021 30.15 850 25.1 4.3 39.7 40 -8 17.6
07:20 1021 30.15 850 25.1 4.6 40.2 40 -8 17.5
07:25 1021 30.15 850 25.1 4.1 39.4 41 -7.9 17.8
07:30 1021 30.15 850 25.1 4.3 39.7 38 -8.7 16.4
07:35 1021 30.15 850 25.1 4.7 40.4 37 -8.9 16
07:40 1021 30.15 850 25.1 5 40.9 35 -9.1 15.6
07:45 1021 30.15 850 25.1 5.4 41.8 35 -9 15.8
07:50 1021 30.15 850 25.1 5 41.1 36 -8.8 16.2
07:55 1021 30.15 850 25.1 5 41.1 35 -9.3 15.2
08:00 1021 30.15 850 25.1 4.9 40.7 35 -9.3 15.3
08:05 1021 30.15 850 25.1 5.2 41.3 34 -9.6 14.8
08:10 1021 30.15 850 25.1 5.4 41.7 36 -8.5 16.7
08:15 1020 30.12 850 25.1 4.7 40.4 38 -8.4 16.9
08:20 1020 30.12 850 25.1 4 39.3 39 -8.6 16.5
08:25 1020 30.12 850 25.1 4.6 40.3 37 -8.9 16
08:30 1020 30.12 850 25.1 4.7 40.5 38 -8.5 16.7
08:35 1020 30.12 850 25.1 4.6 40.2 37 -8.8 16.2
08:40 1020 30.12 850 25.1 5.1 41.3 34 -9.3 15.3
08:45 1020 30.12 850 25.1 5.4 41.8 38 -7.8 17.9
08:50 1020 30.12 850 25.1 5.6 42.1 37 -8 17.5
08:55 1020 30.12 850 25.1 5.3 41.6 37 -8.2 17.2
09:00 1020 30.12 849 25.07 5.2 41.4 36 -8.8 16.2
09:05 1020 30.12 849 25.07 5.8 42.4 33 -9.5 14.9
09:10 1020 30.12 849 25.07 6.6 43.8 34 -8.2 17.3
09:15 1020 30.12 849 25.07 6.2 43.2 34 -8.6 16.5
09:20 1020 30.12 849 25.07 6.2 43.1 34 -8.4 17
09:25 1020 30.12 849 25.07 6.5 43.7 33 -8.8 16.2
09:30 1020 30.12 849 25.07 7.5 45.5 32 -8.2 17.2
09:35 1020 30.12 849 25.07 7.7 45.8 35 -6.7 19.9
09:40 1020 30.12 849 25.07 7.7 45.9 33 -7.6 18.3
09:45 1020 30.12 849 25.07 8.2 46.8 31 -7.8 18
09:50 1020 30.12 849 25.07 9.2 48.5 29 -8.1 17.4
09:55 1020 30.12 849 25.07 9.9 49.8 28 -7.7 18.2
10:00 1020 30.12 849 25.07 10.5 51 26 -8.2 17.2
10:05 1020 30.12 849 25.07 11 51.9 25 -8.1 17.4
10:10 1019 30.09 849 25.07 11.4 52.5 24 -8.2 17.2
10:15 1019 30.09 849 25.07 12.1 53.7 24 -8 17.7
10:20 1019 30.09 849 25.07 12.4 54.3 27 -6.1 21.1
10:25 1019 30.09 849 25.07 12.6 54.6 28 -5.5 22.2
10:30 1019 30.09 848 25.04 12.8 55.1 29 -4.5 23.8
10:35 1019 30.09 848 25.04 12.6 54.7 31 -4.2 24.5
10:40 1019 30.09 848 25.04 11.7 53 30 -5.4 22.3
10:45 1019 30.09 848 25.04 11.7 53.1 28 -6.2 20.8
10:50 1019 30.09 848 25.04 12.2 54 27 -6.4 20.5
10:55 1019 30.09 848 25.04 12.7 54.8 25 -6.7 19.9
11:00 1018 30.06 848 25.04 13.2 55.8 24 -6.8 19.8
11:05 1018 30.06 848 25.04 13.5 56.3 24 -6.9 19.6
11:10 1018 30.06 847 25.01 13.5 56.2 24 -6.7 19.9
11:15 1018 30.06 847 25.01 14 57.1 23 -6.8 19.8
11:20 1018 30.06 847 25.01 14.2 57.6 22 -6.9 19.6
11:25 1018 30.06 847 25.01 14.6 58.3 22 -6.8 19.7
11:30 1018 30.06 847 25.01 14.3 57.8 22 -6.8 19.7
11:35 1018 30.06 847 25.01 14.6 58.3 21 -7.3 18.8
11:40 1018 30.06 847 25.01 15.5 59.9 20 -7.1 19.2
11:45 1018 30.06 847 25.01 15.4 59.7 21 -6.9 19.7
11:50 1018 30.06 847 25.01 15.8 60.5 19 -7.4 18.6
11:55 1018 30.06 847 25.01 16.6 61.9 19 -7.1 19.3
12:00 1018 30.06 847 25.01 17.2 62.9 18 -7.3 18.9
12:05 1017 30.03 847 25.01 17.8 64 16 -8.3 17.1
12:10 1017 30.03 847 25.01 18.1 64.5 15 -8.6 16.5
12:15 1017 30.03 847 25.01 18.3 65 17 -7.3 18.8
12:20 1017 30.03 846 24.98 18.6 65.4 17 -7 19.3
12:25 1017 30.03 846 24.98 18.7 65.6 14 -8.9 16
12:30 1017 30.03 846 24.98 19 66.2 14 -8.8 16.1
12:35 1017 30.03 846 24.98 19.5 67.1 12 -10.4 13.3
12:40 1017 30.03 846 24.98 19.5 67 13 -9.8 14.4
12:45 1016 30 846 24.98 20 68 13 -9.5 15
12:50 1016 30 846 24.98 19.7 67.4 13 -9.5 14.9
12:55 1016 30 845 24.95 19.7 67.5 13 -9.5 15
13:00 1016 30 845 24.95 19.6 67.2 13 -9.5 15
13:05 1016 30 845 24.95 20 67.9 13 -9.1 15.5
13:10 1016 30 845 24.95 20.4 68.8 13 -8.7 16.3
13:15 1016 30 845 24.95 19.1 66.4 13 -9.5 14.9
13:20 1016 30 845 24.95 19.4 66.8 13 -9.5 14.9
13:25 1015 29.97 845 24.95 20.1 68.1 10 -12.6 9.4
13:30 1015 29.97 844 24.92 20.8 69.5 9 -13.8 7.1
13:35 1015 29.97 844 24.92 21.2 70.2 8 -13.8 7.1
13:40 1015 29.97 844 24.92 21.4 70.4 9 -13.2 8.2
13:45 1015 29.97 844 24.92 21.4 70.5 9 -13.2 8.3
13:50 1014 29.94 844 24.92 21.4 70.4 8 -13.5 7.6
13:55 1014 29.94 843 24.89 21.3 70.4 9 -12.7 9.1
14:00 1014 29.94 843 24.89 21.3 70.3 9 -13.5 7.7
14:05 1014 29.94 843 24.89 21.3 70.3 9 -12.7 9.2
14:10 1014 29.94 843 24.89 21.4 70.6 9 -13.2 8.2
14:15 1014 29.94 843 24.89 21.5 70.6 9 -12.8 8.9
14:20 1014 29.94 843 24.89 21.4 70.5 9 -12.8 9
14:25 1014 29.94 843 24.89 21.4 70.4 9 -12.5 9.5
14:30 1014 29.94 843 24.89 21.4 70.5 9 -13.2 8.3
14:35 1014 29.94 843 24.89 21.5 70.6 9 -13.1 8.5
14:40 1014 29.94 843 24.89 21.3 70.3 9 -12.7 9.2
14:45 1014 29.94 843 24.89 21.4 70.4 9 -12.8 8.9
14:50 1014 29.94 843 24.89 21.4 70.6 9 -12.4 9.8
14:55 1014 29.94 843 24.89 21.5 70.8 10 -11.8 10.7
15:00 1014 29.94 843 24.89 21.6 70.8 10 -11.3 11.6
15:05 1014 29.94 843 24.89 21 69.9 10 -11.9 10.6
15:10 1014 29.94 843 24.89 20.9 69.5 10 -11.7 11
15:15 1014 29.94 843 24.89 21.3 70.3 10 -11 12.2
15:20 1014 29.94 843 24.89 21.3 70.3 10 -11.5 11.3
15:25 1014 29.94 843 24.89 21.2 70.1 10 -11.6 11.2
15:30 1014 29.94 843 24.89 21 69.8 10 -12.1 10.2
15:35 1014 29.94 843 24.89 21.2 70.2 10 -11 12.3
15:40 1014 29.94 843 24.89 21.4 70.6 10 -11.2 11.9
15:45 1014 29.94 843 24.89 21.1 69.9 11 -10.9 12.4
15:50 1014 29.94 843 24.89 20.5 69 11 -10.8 12.5
15:55 1014 29.94 843 24.89 20.2 68.4 12 -10.5 13.1
16:00 1014 29.94 843 24.89 20 68 12 -10.3 13.5
16:05 1014 29.94 843 24.89 19.9 67.8 12 -10.3 13.5
16:10 1014 29.94 843 24.89 19.8 67.7 12 -10.4 13.4
16:15 1014 29.94 843 24.89 19.8 67.6 12 -10.3 13.5
16:20 1014 29.94 843 24.89 19.7 67.4 12 -10.2 13.6
16:25 1014 29.94 843 24.89 19.7 67.4 12 -10 14.1
16:30 1014 29.94 843 24.89 19.7 67.4 13 -9.9 14.2
16:35 1014 29.94 843 24.89 19.5 67.2 13 -9.6 14.7
16:40 1014 29.94 843 24.89 19.4 67 13 -9.9 14.1
16:45 1014 29.94 843 24.89 19.4 66.8 13 -9.7 14.5
16:50 1014 29.94 843 24.89 19.2 66.6 13 -9.6 14.6
16:55 1014 29.94 843 24.89 19.1 66.4 13 -9.6 14.7
17:00 1014 29.94 843 24.89 18.9 66.1 13 -9.7 14.5
17:05 1014 29.94 843 24.89 18.9 65.9 13 -9.9 14.1
17:10 1014 29.94 844 24.92 18.9 66 13 -10.4 13.3
17:15 1014 29.94 843 24.89 18.8 65.9 13 -10.5 13.2
17:20 1014 29.94 843 24.89 18.7 65.7 12 -10.7 12.7
17:25 1014 29.94 843 24.89 18.7 65.7 12 -10.8 12.6
17:30 1014 29.94 843 24.89 18.6 65.5 13 -10.7 12.8
17:35 1014 29.94 843 24.89 18.5 65.3 13 -10.6 12.9
17:40 1014 29.94 843 24.89 18.3 65 13 -10.4 13.3
17:45 1014 29.94 843 24.89 18.1 64.6 14 -10 13.9
17:50 1014 29.94 843 24.89 17.9 64.1 14 -9.8 14.3
17:55 1014 29.94 843 24.89 17.7 63.9 14 -10.1 13.8
18:00 1014 29.94 843 24.89 17.7 63.8 14 -10.1 13.8
18:05 1014 29.94 843 24.89 17.7 63.9 14 -10 14
18:10 1014 29.94 843 24.89 17.6 63.7 14 -10 14
18:15 1014 29.94 843 24.89 17.5 63.6 14 -10 14
18:20 1014 29.94 843 24.89 17.3 63.1 15 -9.8 14.4
18:25 1014 29.94 844 24.92 17.2 62.9 15 -9.9 14.2
18:30 1014 29.94 844 24.92 17.1 62.8 15 -9.9 14.2
18:35 1014 29.94 844 24.92 17.1 62.8 15 -10 14
18:40 1014 29.94 844 24.92 17.2 62.9 15 -9.8 14.4
18:45 1014 29.94 844 24.92 17.1 62.8 15 -9.5 14.9
18:50 1014 29.94 844 24.92 16.9 62.4 16 -9.4 15.1
18:55 1014 29.94 844 24.92 16.8 62.2 17 -8.6 16.6
19:00 1014 29.94 844 24.92 16.6 61.9 17 -8.3 17.1
19:05 1014 29.94 844 24.92 16.5 61.7 17 -8.3 17.1
19:10 1015 29.97 844 24.92 16.5 61.6 17 -8.6 16.5
19:15 1015 29.97 844 24.92 16.5 61.7 17 -8.7 16.4
19:20 1015 29.97 844 24.92 16.6 61.8 16 -8.9 15.9
19:25 1015 29.97 844 24.92 16.6 61.8 17 -8.5 16.6
19:30 1015 29.97 844 24.92 16.4 61.6 18 -8.1 17.4
19:35 1015 29.97 844 24.92 16.1 61 22 -5.5 22.2
19:40 1015 29.97 844 24.92 15.5 60 25 -4.4 24.1
19:45 1015 29.97 844 24.92 15.2 59.3 27 -3.7 25.4
19:50 1015 29.97 844 24.92 14.8 58.6 28 -3.5 25.8
19:55 1015 29.97 844 24.92 14.6 58.4 29 -3.1 26.5
20:00 1015 29.97 845 24.95 14.6 58.3 29 -3.2 26.3
20:05 1015 29.97 845 24.95 14.6 58.4 28 -3.8 25.1
20:10 1015 29.97 845 24.95 15 58.9 26 -4.2 24.4
20:15 1016 30 845 24.95 15.2 59.3 28 -3 26.6
20:20 1015 29.97 845 24.95 14.9 58.8 31 -1.9 28.7
20:25 1016 30 845 24.95 14.3 57.8 32 -1.9 28.6
20:30 1016 30 845 24.95 14.2 57.5 33 -1.8 28.7
20:35 1016 30 845 24.95 13.9 56.9 36 -1 30.2
20:40 1016 30 845 24.95 13.4 56.2 38 -0.4 31.2
20:45 1016 30 846 24.98 13.1 55.6 40 0.1 32.1
20:50 1016 30 846 24.98 12.9 55.2 41 0.2 32.3
20:55 1017 30.03 846 24.98 12.6 54.7 43 0.5 32.9
21:00 1017 30.03 846 24.98 12.4 54.2 45 0.8 33.4
21:05 1017 30.03 846 24.98 12.2 53.9 47 1.2 34.1
21:10 1017 30.03 846 24.98 11.9 53.5 50 2 35.5
21:15 1017 30.03 846 24.98 11.7 53.1 51 1.9 35.4
21:20 1017 30.03 846 24.98 11.5 52.8 54 2.6 36.6
21:25 1017 30.03 846 24.98 11.2 52.2 56 2.8 37.1
21:30 1017 30.03 846 24.98 11.2 52.1 58 3.3 38
21:35 1017 30.03 847 25.01 11.1 51.9 58 3 37.5
21:40 1017 30.03 847 25.01 11 51.8 59 3.3 38
21:45 1018 30.06 847 25.01 11 51.8 59 3.4 38.1
21:50 1018 30.06 847 25.01 10.9 51.7 61 3.8 38.8
21:55 1018 30.06 847 25.01 10.8 51.5 60 3.5 38.2
22:00 1018 30.06 847 25.01 10.7 51.3 62 3.7 38.7
22:05 1018 30.06 847 25.01 10.7 51.2 61 3.5 38.3
22:10 1018 30.06 847 25.01 10.5 51 64 4.1 39.3
22:15 1018 30.06 847 25.01 10.3 50.5 66 4.3 39.7
22:20 1018 30.06 847 25.01 10.2 50.3 68 4.4 40
22:25 1018 30.06 847 25.01 10.1 50.2 69 4.8 40.6
22:30 1018 30.06 847 25.01 10.1 50.1 68 4.4 40
22:35 1018 30.06 847 25.01 10 49.9 66 4 39.2
22:40 1018 30.06 847 25.01 9.8 49.6 67 4 39.2
22:45 1018 30.06 847 25.01 9.9 49.8 68 4.2 39.6
22:50 1018 30.06 847 25.01 9.9 49.8 72 5.1 41.2
22:55 1018 30.06 847 25.01 9.7 49.4 72 4.9 40.8
23:00 1018 30.06 848 25.04 9.4 49 74 5 41
23:05 1018 30.06 848 25.04 9.2 48.6 76 5.2 41.4
23:10 1018 30.06 848 25.04 9 48.2 77 5.2 41.4
23:15 1019 30.09 848 25.04 8.8 47.8 79 5.3 41.5
23:20 1019 30.09 848 25.04 8.5 47.4 81 5.5 41.8
23:25 1019 30.09 848 25.04 8.4 47.1 82 5.5 41.9
23:30 1019 30.09 848 25.04 8.2 46.8 82 5.4 41.7
23:35 1019 30.09 848 25.04 8.1 46.6 83 5.4 41.8
23:40 1019 30.09 848 25.04 8.1 46.5 84 5.5 41.9
23:45 1019 30.09 848 25.04 8 46.5 82 5.2 41.3
23:50 1019 30.09 848 25.04 8 46.5 81 5 41
23:55 1019 30.09 848 25.04 8 46.4 80 4.8 40.7
24:00 1019 30.09 848 25.04 8 46.3 82 5.1 41.1